sensor_id;sensor_type;location;lat;lon;timestamp;P1;durP1;ratioP1;P2;durP2;ratioP2
8001;SDS011;4046;48.774;8.732;2023-08-06T00:00:19;1.80;;;1.70;;
8001;SDS011;4046;48.774;8.732;2023-08-06T00:02:47;1.80;;;1.60;;
8001;SDS011;4046;48.774;8.732;2023-08-06T00:05:13;1.70;;;1.60;;
8001;SDS011;4046;48.774;8.732;2023-08-06T00:07:39;1.83;;;1.73;;
8001;SDS011;4046;48.774;8.732;2023-08-06T00:10:04;1.60;;;1.50;;
8001;SDS011;4046;48.774;8.732;2023-08-06T00:12:30;1.90;;;1.70;;
8001;SDS011;4046;48.774;8.732;2023-08-06T00:14:56;1.63;;;1.53;;
8001;SDS011;4046;48.774;8.732;2023-08-06T00:17:22;1.63;;;1.53;;
8001;SDS011;4046;48.774;8.732;2023-08-06T00:19:48;1.60;;;1.50;;
8001;SDS011;4046;48.774;8.732;2023-08-06T00:22:14;1.70;;;1.60;;
8001;SDS011;4046;48.774;8.732;2023-08-06T00:24:40;1.80;;;1.70;;
8001;SDS011;4046;48.774;8.732;2023-08-06T00:27:05;2.27;;;1.70;;
8001;SDS011;4046;48.774;8.732;2023-08-06T00:29:31;1.50;;;1.40;;
8001;SDS011;4046;48.774;8.732;2023-08-06T00:31:57;1.97;;;1.50;;
8001;SDS011;4046;48.774;8.732;2023-08-06T00:34:26;1.70;;;1.50;;
8001;SDS011;4046;48.774;8.732;2023-08-06T00:36:51;1.63;;;1.53;;
8001;SDS011;4046;48.774;8.732;2023-08-06T00:39:18;1.63;;;1.53;;
8001;SDS011;4046;48.774;8.732;2023-08-06T00:41:44;2.10;;;1.53;;
8001;SDS011;4046;48.774;8.732;2023-08-06T00:44:12;1.50;;;1.40;;
8001;SDS011;4046;48.774;8.732;2023-08-06T00:46:38;1.90;;;1.80;;
8001;SDS011;4046;48.774;8.732;2023-08-06T00:49:04;3.20;;;1.50;;
8001;SDS011;4046;48.774;8.732;2023-08-06T00:51:30;1.80;;;1.70;;
8001;SDS011;4046;48.774;8.732;2023-08-06T00:53:57;2.10;;;1.67;;
8001;SDS011;4046;48.774;8.732;2023-08-06T00:56:23;2.13;;;1.57;;
8001;SDS011;4046;48.774;8.732;2023-08-06T00:58:50;1.70;;;1.60;;
8001;SDS011;4046;48.774;8.732;2023-08-06T01:01:17;1.63;;;1.53;;
8001;SDS011;4046;48.774;8.732;2023-08-06T01:03:42;1.80;;;1.70;;
8001;SDS011;4046;48.774;8.732;2023-08-06T01:06:08;1.70;;;1.60;;
8001;SDS011;4046;48.774;8.732;2023-08-06T01:08:41;1.80;;;1.70;;
8001;SDS011;4046;48.774;8.732;2023-08-06T01:11:26;1.80;;;1.70;;
8001;SDS011;4046;48.774;8.732;2023-08-06T01:14:15;2.20;;;1.70;;
8001;SDS011;4046;48.774;8.732;2023-08-06T01:16:50;1.80;;;1.70;;
8001;SDS011;4046;48.774;8.732;2023-08-06T01:19:17;1.83;;;1.73;;
8001;SDS011;4046;48.774;8.732;2023-08-06T01:21:43;2.53;;;1.47;;
8001;SDS011;4046;48.774;8.732;2023-08-06T01:24:10;1.60;;;1.50;;
8001;SDS011;4046;48.774;8.732;2023-08-06T01:26:42;1.70;;;1.57;;
8001;SDS011;4046;48.774;8.732;2023-08-06T01:29:22;1.50;;;1.40;;
8001;SDS011;4046;48.774;8.732;2023-08-06T01:31:53;1.80;;;1.70;;
8001;SDS011;4046;48.774;8.732;2023-08-06T01:34:22;1.70;;;1.60;;
8001;SDS011;4046;48.774;8.732;2023-08-06T01:36:52;1.60;;;1.50;;
8001;SDS011;4046;48.774;8.732;2023-08-06T01:39:19;1.90;;;1.80;;
8001;SDS011;4046;48.774;8.732;2023-08-06T01:41:48;1.77;;;1.67;;
8001;SDS011;4046;48.774;8.732;2023-08-06T01:44:15;1.97;;;1.87;;
8001;SDS011;4046;48.774;8.732;2023-08-06T01:46:41;1.50;;;1.40;;
8001;SDS011;4046;48.774;8.732;2023-08-06T01:49:07;1.60;;;1.50;;
8001;SDS011;4046;48.774;8.732;2023-08-06T01:51:32;1.60;;;1.50;;
8001;SDS011;4046;48.774;8.732;2023-08-06T01:53:59;1.80;;;1.50;;
8001;SDS011;4046;48.774;8.732;2023-08-06T01:56:25;2.50;;;1.80;;
8001;SDS011;4046;48.774;8.732;2023-08-06T01:58:51;1.47;;;1.30;;
8001;SDS011;4046;48.774;8.732;2023-08-06T02:01:17;1.50;;;1.40;;
8001;SDS011;4046;48.774;8.732;2023-08-06T02:03:43;1.80;;;1.40;;
8001;SDS011;4046;48.774;8.732;2023-08-06T02:06:09;1.70;;;1.60;;
8001;SDS011;4046;48.774;8.732;2023-08-06T02:08:35;1.90;;;1.80;;
8001;SDS011;4046;48.774;8.732;2023-08-06T02:11:01;1.77;;;1.67;;
8001;SDS011;4046;48.774;8.732;2023-08-06T02:13:28;1.73;;;1.63;;
8001;SDS011;4046;48.774;8.732;2023-08-06T02:15:54;1.50;;;1.40;;
8001;SDS011;4046;48.774;8.732;2023-08-06T02:18:21;1.87;;;1.70;;
8001;SDS011;4046;48.774;8.732;2023-08-06T02:20:59;2.00;;;1.90;;
8001;SDS011;4046;48.774;8.732;2023-08-06T02:23:25;1.73;;;1.63;;
8001;SDS011;4046;48.774;8.732;2023-08-06T02:25:58;1.63;;;1.53;;
8001;SDS011;4046;48.774;8.732;2023-08-06T02:28:27;2.77;;;1.70;;
8001;SDS011;4046;48.774;8.732;2023-08-06T02:30:54;1.80;;;1.70;;
8001;SDS011;4046;48.774;8.732;2023-08-06T02:33:20;1.70;;;1.60;;
8001;SDS011;4046;48.774;8.732;2023-08-06T02:35:46;1.83;;;1.70;;
8001;SDS011;4046;48.774;8.732;2023-08-06T02:38:12;1.63;;;1.53;;
8001;SDS011;4046;48.774;8.732;2023-08-06T02:40:56;1.70;;;1.60;;
8001;SDS011;4046;48.774;8.732;2023-08-06T02:43:24;1.80;;;1.70;;
8001;SDS011;4046;48.774;8.732;2023-08-06T02:45:49;1.60;;;1.50;;
8001;SDS011;4046;48.774;8.732;2023-08-06T02:48:15;1.77;;;1.67;;
8001;SDS011;4046;48.774;8.732;2023-08-06T02:50:44;1.57;;;1.47;;
8001;SDS011;4046;48.774;8.732;2023-08-06T02:53:11;1.67;;;1.57;;
8001;SDS011;4046;48.774;8.732;2023-08-06T02:55:37;1.60;;;1.50;;
8001;SDS011;4046;48.774;8.732;2023-08-06T02:58:03;2.23;;;1.93;;
8001;SDS011;4046;48.774;8.732;2023-08-06T03:00:29;1.50;;;1.40;;
8001;SDS011;4046;48.774;8.732;2023-08-06T03:02:57;1.70;;;1.60;;
8001;SDS011;4046;48.774;8.732;2023-08-06T03:05:23;1.67;;;1.57;;
8001;SDS011;4046;48.774;8.732;2023-08-06T03:07:50;1.60;;;1.50;;
8001;SDS011;4046;48.774;8.732;2023-08-06T03:10:16;1.70;;;1.60;;
8001;SDS011;4046;48.774;8.732;2023-08-06T03:12:43;1.50;;;1.40;;
8001;SDS011;4046;48.774;8.732;2023-08-06T03:15:09;1.53;;;1.43;;
8001;SDS011;4046;48.774;8.732;2023-08-06T03:17:35;1.80;;;1.40;;
8001;SDS011;4046;48.774;8.732;2023-08-06T03:20:00;1.60;;;1.50;;
8001;SDS011;4046;48.774;8.732;2023-08-06T03:22:27;1.67;;;1.57;;
8001;SDS011;4046;48.774;8.732;2023-08-06T03:24:54;1.60;;;1.50;;
8001;SDS011;4046;48.774;8.732;2023-08-06T03:27:19;1.57;;;1.47;;
8001;SDS011;4046;48.774;8.732;2023-08-06T03:29:45;1.90;;;1.70;;
8001;SDS011;4046;48.774;8.732;2023-08-06T03:32:14;1.83;;;1.73;;
8001;SDS011;4046;48.774;8.732;2023-08-06T03:34:41;1.77;;;1.67;;
8001;SDS011;4046;48.774;8.732;2023-08-06T03:37:06;1.77;;;1.67;;
8001;SDS011;4046;48.774;8.732;2023-08-06T03:39:32;2.37;;;1.57;;
8001;SDS011;4046;48.774;8.732;2023-08-06T03:41:58;1.63;;;1.53;;
8001;SDS011;4046;48.774;8.732;2023-08-06T03:44:26;1.90;;;1.70;;
8001;SDS011;4046;48.774;8.732;2023-08-06T03:46:53;1.53;;;1.43;;
8001;SDS011;4046;48.774;8.732;2023-08-06T03:49:19;1.57;;;1.47;;
8001;SDS011;4046;48.774;8.732;2023-08-06T03:51:45;1.40;;;1.30;;
8001;SDS011;4046;48.774;8.732;2023-08-06T03:54:11;1.73;;;1.63;;
8001;SDS011;4046;48.774;8.732;2023-08-06T03:56:37;2.53;;;1.70;;
8001;SDS011;4046;48.774;8.732;2023-08-06T03:59:03;1.50;;;1.40;;
8001;SDS011;4046;48.774;8.732;2023-08-06T04:01:29;1.60;;;1.50;;
8001;SDS011;4046;48.774;8.732;2023-08-06T04:03:56;1.83;;;1.63;;
8001;SDS011;4046;48.774;8.732;2023-08-06T04:06:22;1.53;;;1.43;;
8001;SDS011;4046;48.774;8.732;2023-08-06T04:08:47;1.90;;;1.67;;
8001;SDS011;4046;48.774;8.732;2023-08-06T04:11:15;1.50;;;1.40;;
8001;SDS011;4046;48.774;8.732;2023-08-06T04:13:43;1.47;;;1.37;;
8001;SDS011;4046;48.774;8.732;2023-08-06T04:16:11;1.50;;;1.40;;
8001;SDS011;4046;48.774;8.732;2023-08-06T04:18:37;1.60;;;1.50;;
8001;SDS011;4046;48.774;8.732;2023-08-06T04:21:03;1.60;;;1.50;;
8001;SDS011;4046;48.774;8.732;2023-08-06T04:23:28;2.17;;;1.30;;
8001;SDS011;4046;48.774;8.732;2023-08-06T04:25:57;1.57;;;1.47;;
8001;SDS011;4046;48.774;8.732;2023-08-06T04:28:24;1.93;;;1.70;;
8001;SDS011;4046;48.774;8.732;2023-08-06T04:30:50;1.67;;;1.57;;
8001;SDS011;4046;48.774;8.732;2023-08-06T04:33:19;2.10;;;1.60;;
8001;SDS011;4046;48.774;8.732;2023-08-06T04:35:45;1.70;;;1.23;;
8001;SDS011;4046;48.774;8.732;2023-08-06T04:38:11;1.73;;;1.63;;
8001;SDS011;4046;48.774;8.732;2023-08-06T04:40:37;1.63;;;1.53;;
8001;SDS011;4046;48.774;8.732;2023-08-06T04:43:04;1.47;;;1.37;;
8001;SDS011;4046;48.774;8.732;2023-08-06T04:45:29;1.50;;;1.40;;
8001;SDS011;4046;48.774;8.732;2023-08-06T04:47:57;1.90;;;1.80;;
8001;SDS011;4046;48.774;8.732;2023-08-06T04:50:23;1.77;;;1.67;;
8001;SDS011;4046;48.774;8.732;2023-08-06T04:52:48;1.50;;;1.20;;
8001;SDS011;4046;48.774;8.732;2023-08-06T04:55:14;1.40;;;1.30;;
8001;SDS011;4046;48.774;8.732;2023-08-06T04:57:41;2.17;;;1.40;;
8001;SDS011;4046;48.774;8.732;2023-08-06T05:00:07;1.60;;;1.50;;
8001;SDS011;4046;48.774;8.732;2023-08-06T05:02:33;1.50;;;1.40;;
8001;SDS011;4046;48.774;8.732;2023-08-06T05:04:59;1.90;;;1.80;;
8001;SDS011;4046;48.774;8.732;2023-08-06T05:07:25;1.43;;;1.33;;
8001;SDS011;4046;48.774;8.732;2023-08-06T05:09:52;1.50;;;1.40;;
8001;SDS011;4046;48.774;8.732;2023-08-06T05:12:19;1.50;;;1.40;;
8001;SDS011;4046;48.774;8.732;2023-08-06T05:14:44;2.17;;;1.37;;
8001;SDS011;4046;48.774;8.732;2023-08-06T05:17:12;1.50;;;1.40;;
8001;SDS011;4046;48.774;8.732;2023-08-06T05:19:37;1.50;;;1.40;;
8001;SDS011;4046;48.774;8.732;2023-08-06T05:22:03;1.60;;;1.50;;
8001;SDS011;4046;48.774;8.732;2023-08-06T05:24:29;2.13;;;1.30;;
8001;SDS011;4046;48.774;8.732;2023-08-06T05:26:55;2.40;;;1.30;;
8001;SDS011;4046;48.774;8.732;2023-08-06T05:29:20;2.10;;;1.17;;
8001;SDS011;4046;48.774;8.732;2023-08-06T05:31:46;1.60;;;1.50;;
8001;SDS011;4046;48.774;8.732;2023-08-06T05:34:11;1.63;;;1.53;;
8001;SDS011;4046;48.774;8.732;2023-08-06T05:36:37;1.40;;;1.30;;
8001;SDS011;4046;48.774;8.732;2023-08-06T05:39:03;1.30;;;1.10;;
8001;SDS011;4046;48.774;8.732;2023-08-06T05:41:30;1.60;;;1.30;;
8001;SDS011;4046;48.774;8.732;2023-08-06T05:43:57;1.63;;;1.20;;
8001;SDS011;4046;48.774;8.732;2023-08-06T05:46:23;1.40;;;1.20;;
8001;SDS011;4046;48.774;8.732;2023-08-06T05:48:49;1.40;;;1.30;;
8001;SDS011;4046;48.774;8.732;2023-08-06T05:51:17;1.97;;;1.20;;
8001;SDS011;4046;48.774;8.732;2023-08-06T05:53:44;1.43;;;1.33;;
8001;SDS011;4046;48.774;8.732;2023-08-06T05:56:12;1.40;;;1.30;;
8001;SDS011;4046;48.774;8.732;2023-08-06T05:58:38;1.40;;;1.30;;
8001;SDS011;4046;48.774;8.732;2023-08-06T06:01:04;1.30;;;1.20;;
8001;SDS011;4046;48.774;8.732;2023-08-06T06:03:29;1.50;;;1.40;;
8001;SDS011;4046;48.774;8.732;2023-08-06T06:05:59;1.50;;;1.37;;
8001;SDS011;4046;48.774;8.732;2023-08-06T06:08:26;1.30;;;1.17;;
8001;SDS011;4046;48.774;8.732;2023-08-06T06:10:52;1.53;;;1.40;;
8001;SDS011;4046;48.774;8.732;2023-08-06T06:13:18;1.53;;;1.30;;
8001;SDS011;4046;48.774;8.732;2023-08-06T06:15:45;1.40;;;1.30;;
8001;SDS011;4046;48.774;8.732;2023-08-06T06:18:12;1.40;;;1.23;;
8001;SDS011;4046;48.774;8.732;2023-08-06T06:20:38;1.40;;;1.30;;
8001;SDS011;4046;48.774;8.732;2023-08-06T06:23:04;1.50;;;1.27;;
8001;SDS011;4046;48.774;8.732;2023-08-06T06:25:31;1.40;;;1.10;;
8001;SDS011;4046;48.774;8.732;2023-08-06T06:27:56;1.30;;;1.10;;
8001;SDS011;4046;48.774;8.732;2023-08-06T06:30:23;1.60;;;1.20;;
8001;SDS011;4046;48.774;8.732;2023-08-06T06:32:49;1.30;;;1.20;;
8001;SDS011;4046;48.774;8.732;2023-08-06T06:35:15;1.30;;;1.10;;
8001;SDS011;4046;48.774;8.732;2023-08-06T06:37:42;1.30;;;1.10;;
8001;SDS011;4046;48.774;8.732;2023-08-06T06:40:08;1.30;;;1.10;;
8001;SDS011;4046;48.774;8.732;2023-08-06T06:42:35;1.20;;;1.07;;
8001;SDS011;4046;48.774;8.732;2023-08-06T06:45:01;1.80;;;1.30;;
8001;SDS011;4046;48.774;8.732;2023-08-06T06:47:26;1.30;;;1.17;;
8001;SDS011;4046;48.774;8.732;2023-08-06T06:49:52;1.30;;;1.10;;
8001;SDS011;4046;48.774;8.732;2023-08-06T06:52:19;1.20;;;0.97;;
8001;SDS011;4046;48.774;8.732;2023-08-06T06:54:47;1.30;;;1.10;;
8001;SDS011;4046;48.774;8.732;2023-08-06T06:57:13;1.83;;;1.40;;
8001;SDS011;4046;48.774;8.732;2023-08-06T06:59:40;1.40;;;0.90;;
8001;SDS011;4046;48.774;8.732;2023-08-06T07:02:05;1.20;;;0.90;;
8001;SDS011;4046;48.774;8.732;2023-08-06T07:04:31;1.30;;;1.10;;
8001;SDS011;4046;48.774;8.732;2023-08-06T07:06:57;1.30;;;1.00;;
8001;SDS011;4046;48.774;8.732;2023-08-06T07:09:24;1.20;;;1.00;;
8001;SDS011;4046;48.774;8.732;2023-08-06T07:11:50;1.20;;;0.97;;
8001;SDS011;4046;48.774;8.732;2023-08-06T07:14:16;2.03;;;1.10;;
8001;SDS011;4046;48.774;8.732;2023-08-06T07:16:42;1.30;;;1.10;;
8001;SDS011;4046;48.774;8.732;2023-08-06T07:19:08;1.20;;;0.97;;
8001;SDS011;4046;48.774;8.732;2023-08-06T07:21:34;1.30;;;0.90;;
8001;SDS011;4046;48.774;8.732;2023-08-06T07:24:00;1.27;;;1.00;;
8001;SDS011;4046;48.774;8.732;2023-08-06T07:26:27;1.27;;;0.90;;
8001;SDS011;4046;48.774;8.732;2023-08-06T07:28:53;1.20;;;0.90;;
8001;SDS011;4046;48.774;8.732;2023-08-06T07:31:19;1.20;;;0.90;;
8001;SDS011;4046;48.774;8.732;2023-08-06T07:33:45;1.40;;;0.90;;
8001;SDS011;4046;48.774;8.732;2023-08-06T07:36:12;1.37;;;1.10;;
8001;SDS011;4046;48.774;8.732;2023-08-06T07:38:38;1.40;;;1.10;;
8001;SDS011;4046;48.774;8.732;2023-08-06T07:41:04;1.20;;;1.10;;
8001;SDS011;4046;48.774;8.732;2023-08-06T07:43:30;1.30;;;0.90;;
8001;SDS011;4046;48.774;8.732;2023-08-06T07:45:59;1.20;;;0.80;;
8001;SDS011;4046;48.774;8.732;2023-08-06T07:48:26;1.20;;;0.80;;
8001;SDS011;4046;48.774;8.732;2023-08-06T07:50:53;1.30;;;0.90;;
8001;SDS011;4046;48.774;8.732;2023-08-06T07:53:20;1.20;;;0.90;;
8001;SDS011;4046;48.774;8.732;2023-08-06T07:55:53;1.20;;;0.90;;
8001;SDS011;4046;48.774;8.732;2023-08-06T07:58:23;1.27;;;1.00;;
8001;SDS011;4046;48.774;8.732;2023-08-06T08:00:50;1.50;;;0.80;;
8001;SDS011;4046;48.774;8.732;2023-08-06T08:03:17;1.30;;;0.80;;
8001;SDS011;4046;48.774;8.732;2023-08-06T08:05:43;1.20;;;0.90;;
8001;SDS011;4046;48.774;8.732;2023-08-06T08:08:09;1.40;;;1.00;;
8001;SDS011;4046;48.774;8.732;2023-08-06T08:10:36;1.20;;;0.90;;
8001;SDS011;4046;48.774;8.732;2023-08-06T08:13:04;1.10;;;0.73;;
8001;SDS011;4046;48.774;8.732;2023-08-06T08:15:31;1.20;;;0.90;;
8001;SDS011;4046;48.774;8.732;2023-08-06T08:17:57;1.30;;;0.87;;
8001;SDS011;4046;48.774;8.732;2023-08-06T08:20:24;1.20;;;0.80;;
8001;SDS011;4046;48.774;8.732;2023-08-06T08:22:50;1.13;;;0.77;;
8001;SDS011;4046;48.774;8.732;2023-08-06T08:25:17;1.10;;;0.70;;
8001;SDS011;4046;48.774;8.732;2023-08-06T08:27:44;1.20;;;0.80;;
8001;SDS011;4046;48.774;8.732;2023-08-06T08:30:10;1.30;;;0.80;;
8001;SDS011;4046;48.774;8.732;2023-08-06T08:32:36;1.60;;;0.70;;
8001;SDS011;4046;48.774;8.732;2023-08-06T08:35:02;1.30;;;0.80;;
8001;SDS011;4046;48.774;8.732;2023-08-06T08:37:28;1.10;;;0.67;;
8001;SDS011;4046;48.774;8.732;2023-08-06T08:39:54;1.67;;;0.80;;
8001;SDS011;4046;48.774;8.732;2023-08-06T08:42:19;1.10;;;0.70;;
8001;SDS011;4046;48.774;8.732;2023-08-06T08:44:46;1.50;;;0.80;;
8001;SDS011;4046;48.774;8.732;2023-08-06T08:47:12;1.10;;;0.70;;
8001;SDS011;4046;48.774;8.732;2023-08-06T08:49:38;1.10;;;0.67;;
8001;SDS011;4046;48.774;8.732;2023-08-06T08:52:05;1.20;;;0.70;;
8001;SDS011;4046;48.774;8.732;2023-08-06T08:54:37;1.30;;;0.70;;
8001;SDS011;4046;48.774;8.732;2023-08-06T08:57:05;1.57;;;0.60;;
8001;SDS011;4046;48.774;8.732;2023-08-06T08:59:32;1.20;;;0.70;;
8001;SDS011;4046;48.774;8.732;2023-08-06T09:02:00;1.20;;;0.70;;
8001;SDS011;4046;48.774;8.732;2023-08-06T09:04:26;1.20;;;0.73;;
8001;SDS011;4046;48.774;8.732;2023-08-06T09:06:58;1.10;;;0.70;;
8001;SDS011;4046;48.774;8.732;2023-08-06T09:09:26;1.10;;;0.70;;
8001;SDS011;4046;48.774;8.732;2023-08-06T09:11:55;1.17;;;0.60;;
8001;SDS011;4046;48.774;8.732;2023-08-06T09:14:30;1.10;;;0.80;;
8001;SDS011;4046;48.774;8.732;2023-08-06T09:16:56;1.17;;;0.70;;
8001;SDS011;4046;48.774;8.732;2023-08-06T09:19:22;1.13;;;0.70;;
8001;SDS011;4046;48.774;8.732;2023-08-06T09:21:50;1.10;;;0.60;;
8001;SDS011;4046;48.774;8.732;2023-08-06T09:24:17;2.50;;;0.60;;
8001;SDS011;4046;48.774;8.732;2023-08-06T09:26:44;1.10;;;0.60;;
8001;SDS011;4046;48.774;8.732;2023-08-06T09:29:10;1.10;;;0.70;;
8001;SDS011;4046;48.774;8.732;2023-08-06T09:34:09;1.53;;;0.80;;
8001;SDS011;4046;48.774;8.732;2023-08-06T09:36:42;1.10;;;0.70;;
8001;SDS011;4046;48.774;8.732;2023-08-06T09:39:13;1.10;;;0.60;;
8001;SDS011;4046;48.774;8.732;2023-08-06T09:41:44;1.10;;;0.60;;
8001;SDS011;4046;48.774;8.732;2023-08-06T09:44:15;1.20;;;0.70;;
8001;SDS011;4046;48.774;8.732;2023-08-06T09:46:50;1.10;;;0.63;;
8001;SDS011;4046;48.774;8.732;2023-08-06T09:49:19;1.10;;;0.60;;
8001;SDS011;4046;48.774;8.732;2023-08-06T09:51:46;1.40;;;0.70;;
8001;SDS011;4046;48.774;8.732;2023-08-06T09:54:15;1.10;;;0.60;;
8001;SDS011;4046;48.774;8.732;2023-08-06T09:56:43;1.70;;;0.70;;
8001;SDS011;4046;48.774;8.732;2023-08-06T09:59:08;1.10;;;0.53;;
8001;SDS011;4046;48.774;8.732;2023-08-06T10:01:37;1.10;;;0.60;;
8001;SDS011;4046;48.774;8.732;2023-08-06T10:04:03;1.10;;;0.60;;
8001;SDS011;4046;48.774;8.732;2023-08-06T10:06:34;1.10;;;0.60;;
8001;SDS011;4046;48.774;8.732;2023-08-06T10:09:03;1.10;;;0.60;;
8001;SDS011;4046;48.774;8.732;2023-08-06T10:11:30;1.10;;;0.50;;
8001;SDS011;4046;48.774;8.732;2023-08-06T10:14:00;1.10;;;0.60;;
8001;SDS011;4046;48.774;8.732;2023-08-06T10:16:38;1.10;;;0.57;;
8001;SDS011;4046;48.774;8.732;2023-08-06T10:19:05;1.20;;;0.60;;
8001;SDS011;4046;48.774;8.732;2023-08-06T10:21:35;1.10;;;0.60;;
8001;SDS011;4046;48.774;8.732;2023-08-06T10:24:02;1.30;;;0.53;;
8001;SDS011;4046;48.774;8.732;2023-08-06T10:26:32;1.10;;;0.50;;
8001;SDS011;4046;48.774;8.732;2023-08-06T10:28:57;1.10;;;0.53;;
8001;SDS011;4046;48.774;8.732;2023-08-06T10:34:24;1.20;;;0.53;;
8001;SDS011;4046;48.774;8.732;2023-08-06T10:36:53;1.10;;;0.50;;
8001;SDS011;4046;48.774;8.732;2023-08-06T10:39:22;1.10;;;0.60;;
8001;SDS011;4046;48.774;8.732;2023-08-06T10:41:47;1.10;;;0.60;;
8001;SDS011;4046;48.774;8.732;2023-08-06T10:44:13;1.10;;;0.60;;
8001;SDS011;4046;48.774;8.732;2023-08-06T10:46:41;1.13;;;0.70;;
8001;SDS011;4046;48.774;8.732;2023-08-06T10:49:08;1.50;;;0.60;;
8001;SDS011;4046;48.774;8.732;2023-08-06T10:51:36;1.10;;;0.50;;
8001;SDS011;4046;48.774;8.732;2023-08-06T10:54:02;1.10;;;0.50;;
8001;SDS011;4046;48.774;8.732;2023-08-06T10:56:30;1.10;;;0.60;;
8001;SDS011;4046;48.774;8.732;2023-08-06T10:58:57;1.10;;;0.67;;
8001;SDS011;4046;48.774;8.732;2023-08-06T11:01:23;1.10;;;0.60;;
8001;SDS011;4046;48.774;8.732;2023-08-06T11:03:49;1.20;;;0.70;;
8001;SDS011;4046;48.774;8.732;2023-08-06T11:06:18;1.10;;;0.60;;
8001;SDS011;4046;48.774;8.732;2023-08-06T11:08:54;1.10;;;0.70;;
8001;SDS011;4046;48.774;8.732;2023-08-06T11:11:22;1.20;;;0.70;;
8001;SDS011;4046;48.774;8.732;2023-08-06T11:13:49;1.10;;;0.63;;
8001;SDS011;4046;48.774;8.732;2023-08-06T11:16:20;1.10;;;0.60;;
8001;SDS011;4046;48.774;8.732;2023-08-06T11:18:48;1.10;;;0.57;;
8001;SDS011;4046;48.774;8.732;2023-08-06T11:21:14;1.10;;;0.60;;
8001;SDS011;4046;48.774;8.732;2023-08-06T11:23:43;1.10;;;0.60;;
8001;SDS011;4046;48.774;8.732;2023-08-06T11:26:09;1.10;;;0.60;;
8001;SDS011;4046;48.774;8.732;2023-08-06T11:28:34;1.10;;;0.70;;
8001;SDS011;4046;48.774;8.732;2023-08-06T11:31:02;1.40;;;0.63;;
8001;SDS011;4046;48.774;8.732;2023-08-06T11:33:29;1.10;;;0.60;;
8001;SDS011;4046;48.774;8.732;2023-08-06T11:35:55;1.10;;;0.60;;
8001;SDS011;4046;48.774;8.732;2023-08-06T11:38:27;1.47;;;0.70;;
8001;SDS011;4046;48.774;8.732;2023-08-06T11:40:54;1.20;;;0.80;;
8001;SDS011;4046;48.774;8.732;2023-08-06T11:43:20;1.30;;;0.70;;
8001;SDS011;4046;48.774;8.732;2023-08-06T11:45:48;1.20;;;0.80;;
8001;SDS011;4046;48.774;8.732;2023-08-06T11:48:16;1.20;;;0.73;;
8001;SDS011;4046;48.774;8.732;2023-08-06T11:50:43;1.10;;;0.60;;
8001;SDS011;4046;48.774;8.732;2023-08-06T11:53:11;1.30;;;1.00;;
8001;SDS011;4046;48.774;8.732;2023-08-06T11:55:42;1.10;;;0.60;;
8001;SDS011;4046;48.774;8.732;2023-08-06T11:58:11;1.30;;;0.73;;
8001;SDS011;4046;48.774;8.732;2023-08-06T12:00:37;3.10;;;0.80;;
8001;SDS011;4046;48.774;8.732;2023-08-06T12:03:04;1.20;;;0.77;;
8001;SDS011;4046;48.774;8.732;2023-08-06T12:05:32;1.20;;;0.70;;
8001;SDS011;4046;48.774;8.732;2023-08-06T12:07:59;1.13;;;0.70;;
8001;SDS011;4046;48.774;8.732;2023-08-06T12:10:28;1.20;;;0.80;;
8001;SDS011;4046;48.774;8.732;2023-08-06T12:12:55;1.10;;;0.70;;
8001;SDS011;4046;48.774;8.732;2023-08-06T12:15:21;1.20;;;0.70;;
8001;SDS011;4046;48.774;8.732;2023-08-06T12:17:47;1.27;;;0.87;;
8001;SDS011;4046;48.774;8.732;2023-08-06T12:20:14;1.10;;;0.80;;
8001;SDS011;4046;48.774;8.732;2023-08-06T12:22:40;1.17;;;0.80;;
8001;SDS011;4046;48.774;8.732;2023-08-06T12:25:10;1.20;;;0.77;;
8001;SDS011;4046;48.774;8.732;2023-08-06T12:27:43;1.20;;;0.70;;
8001;SDS011;4046;48.774;8.732;2023-08-06T12:30:11;1.10;;;0.60;;
8001;SDS011;4046;48.774;8.732;2023-08-06T12:32:37;1.10;;;0.70;;
8001;SDS011;4046;48.774;8.732;2023-08-06T12:35:06;1.10;;;0.70;;
8001;SDS011;4046;48.774;8.732;2023-08-06T12:37:32;1.20;;;0.80;;
8001;SDS011;4046;48.774;8.732;2023-08-06T12:39:58;1.20;;;0.77;;
8001;SDS011;4046;48.774;8.732;2023-08-06T12:42:24;1.20;;;0.70;;
8001;SDS011;4046;48.774;8.732;2023-08-06T12:44:51;1.30;;;0.73;;
8001;SDS011;4046;48.774;8.732;2023-08-06T12:47:19;1.20;;;0.80;;
8001;SDS011;4046;48.774;8.732;2023-08-06T12:49:46;1.20;;;0.67;;
8001;SDS011;4046;48.774;8.732;2023-08-06T12:52:12;1.10;;;0.70;;
8001;SDS011;4046;48.774;8.732;2023-08-06T12:54:40;1.20;;;0.70;;
8001;SDS011;4046;48.774;8.732;2023-08-06T12:57:06;1.40;;;0.80;;
8001;SDS011;4046;48.774;8.732;2023-08-06T12:59:32;1.20;;;0.80;;
8001;SDS011;4046;48.774;8.732;2023-08-06T13:02:05;1.40;;;0.70;;
8001;SDS011;4046;48.774;8.732;2023-08-06T13:04:30;1.20;;;0.90;;
8001;SDS011;4046;48.774;8.732;2023-08-06T13:06:57;1.20;;;0.80;;
8001;SDS011;4046;48.774;8.732;2023-08-06T13:09:24;1.20;;;0.73;;
8001;SDS011;4046;48.774;8.732;2023-08-06T13:11:52;1.20;;;0.80;;
8001;SDS011;4046;48.774;8.732;2023-08-06T13:14:18;1.57;;;0.70;;
8001;SDS011;4046;48.774;8.732;2023-08-06T13:16:44;1.30;;;0.70;;
8001;SDS011;4046;48.774;8.732;2023-08-06T13:19:10;1.20;;;0.80;;
8001;SDS011;4046;48.774;8.732;2023-08-06T13:24:15;1.30;;;0.70;;
8001;SDS011;4046;48.774;8.732;2023-08-06T13:26:41;1.40;;;0.80;;
8001;SDS011;4046;48.774;8.732;2023-08-06T13:29:07;1.10;;;0.70;;
8001;SDS011;4046;48.774;8.732;2023-08-06T13:31:34;1.20;;;0.70;;
8001;SDS011;4046;48.774;8.732;2023-08-06T13:34:00;1.20;;;0.70;;
8001;SDS011;4046;48.774;8.732;2023-08-06T13:36:26;1.10;;;0.60;;
8001;SDS011;4046;48.774;8.732;2023-08-06T13:38:52;1.20;;;0.80;;
8001;SDS011;4046;48.774;8.732;2023-08-06T13:41:18;1.50;;;0.80;;
8001;SDS011;4046;48.774;8.732;2023-08-06T13:43:45;1.10;;;0.70;;
8001;SDS011;4046;48.774;8.732;2023-08-06T13:46:13;1.20;;;0.73;;
8001;SDS011;4046;48.774;8.732;2023-08-06T13:48:43;1.20;;;0.80;;
8001;SDS011;4046;48.774;8.732;2023-08-06T13:51:10;1.10;;;0.70;;
8001;SDS011;4046;48.774;8.732;2023-08-06T13:53:39;1.20;;;0.80;;
8001;SDS011;4046;48.774;8.732;2023-08-06T13:56:08;1.53;;;0.70;;
8001;SDS011;4046;48.774;8.732;2023-08-06T13:58:40;1.20;;;0.70;;
8001;SDS011;4046;48.774;8.732;2023-08-06T14:01:06;1.20;;;0.70;;
8001;SDS011;4046;48.774;8.732;2023-08-06T14:03:33;1.30;;;0.90;;
8001;SDS011;4046;48.774;8.732;2023-08-06T14:06:00;1.20;;;0.70;;
8001;SDS011;4046;48.774;8.732;2023-08-06T14:08:26;1.40;;;0.80;;
8001;SDS011;4046;48.774;8.732;2023-08-06T14:10:52;1.20;;;0.67;;
8001;SDS011;4046;48.774;8.732;2023-08-06T14:13:21;1.20;;;0.80;;
8001;SDS011;4046;48.774;8.732;2023-08-06T14:15:47;1.20;;;0.80;;
8001;SDS011;4046;48.774;8.732;2023-08-06T14:18:14;1.20;;;0.80;;
8001;SDS011;4046;48.774;8.732;2023-08-06T14:20:40;1.57;;;0.90;;
8001;SDS011;4046;48.774;8.732;2023-08-06T14:23:07;1.20;;;0.80;;
8001;SDS011;4046;48.774;8.732;2023-08-06T14:25:33;1.20;;;0.70;;
8001;SDS011;4046;48.774;8.732;2023-08-06T14:27:58;1.20;;;0.80;;
8001;SDS011;4046;48.774;8.732;2023-08-06T14:30:25;1.20;;;0.70;;
8001;SDS011;4046;48.774;8.732;2023-08-06T14:32:51;1.77;;;0.70;;
8001;SDS011;4046;48.774;8.732;2023-08-06T14:35:16;1.90;;;0.70;;
8001;SDS011;4046;48.774;8.732;2023-08-06T14:37:44;1.20;;;0.70;;
8001;SDS011;4046;48.774;8.732;2023-08-06T14:40:11;1.27;;;0.67;;
8001;SDS011;4046;48.774;8.732;2023-08-06T14:42:37;1.20;;;0.70;;
8001;SDS011;4046;48.774;8.732;2023-08-06T14:45:03;1.10;;;0.70;;
8001;SDS011;4046;48.774;8.732;2023-08-06T14:47:29;1.17;;;0.70;;
8001;SDS011;4046;48.774;8.732;2023-08-06T14:49:55;1.20;;;0.80;;
8001;SDS011;4046;48.774;8.732;2023-08-06T14:52:21;1.30;;;0.80;;
8001;SDS011;4046;48.774;8.732;2023-08-06T14:54:48;1.10;;;0.70;;
8001;SDS011;4046;48.774;8.732;2023-08-06T14:57:17;1.10;;;0.60;;
8001;SDS011;4046;48.774;8.732;2023-08-06T14:59:44;1.20;;;0.70;;
8001;SDS011;4046;48.774;8.732;2023-08-06T15:02:10;1.27;;;0.90;;
8001;SDS011;4046;48.774;8.732;2023-08-06T15:04:36;1.20;;;0.80;;
8001;SDS011;4046;48.774;8.732;2023-08-06T15:07:02;1.20;;;0.80;;
8001;SDS011;4046;48.774;8.732;2023-08-06T15:09:27;1.10;;;0.70;;
8001;SDS011;4046;48.774;8.732;2023-08-06T15:11:53;1.67;;;0.70;;
8001;SDS011;4046;48.774;8.732;2023-08-06T15:14:20;1.10;;;0.70;;
8001;SDS011;4046;48.774;8.732;2023-08-06T15:16:48;1.13;;;0.67;;
8001;SDS011;4046;48.774;8.732;2023-08-06T15:19:16;1.10;;;0.70;;
8001;SDS011;4046;48.774;8.732;2023-08-06T15:21:41;1.20;;;0.70;;